Time;durP1;ratioP1;P1;durP2;ratioP2;P2;SDS_P1;SDS_P2;PMS_P1;PMS_P2;Temp;Humidity;BMP_temperature;BMP_pressure;BME280_temperature;BME280_humidity;BME280_pressure;Samples;Min_cycle;Max_cycle;Signal;HPM_P1;HPM_P2
2021/03/21 00:00:43;;;;;;;23.22;14.68;;;;;;;-1.76;78.34;100747.03;1803257;78;21357;-73
2021/03/21 00:03:11;;;;;;;23.18;14.50;;;;;;;-1.74;78.35;100749.00;1799180;79;21253;-74
2021/03/21 00:05:39;;;;;;;22.42;14.50;;;;;;;-1.72;78.35;100749.63;1785043;79;21630;-75
2021/03/21 00:08:16;;;;;;;22.75;14.38;;;;;;;-1.72;78.34;100752.24;1795394;79;21701;-75
2021/03/21 00:10:55;;;;;;;22.70;14.03;;;;;;;-1.70;78.31;100744.54;1832938;77;22872;-77
2021/03/21 00:13:24;;;;;;;21.10;13.38;;;;;;;-1.71;78.34;100746.00;1820419;77;21165;-73
2021/03/21 00:15:53;;;;;;;23.35;14.18;;;;;;;-1.67;78.35;100745.51;1847903;77;21388;-75
2021/03/21 00:18:24;;;;;;;23.30;14.20;;;;;;;-1.63;78.34;100739.93;1834918;77;21125;-76
2021/03/21 00:20:52;;;;;;;20.57;14.23;;;;;;;-1.58;78.33;100741.52;1842312;75;21612;-76
2021/03/21 00:23:20;;;;;;;23.25;14.40;;;;;;;-1.55;78.31;100739.87;1814598;77;21176;-74
2021/03/21 00:25:48;;;;;;;23.90;14.05;;;;;;;-1.48;78.29;100735.56;1808156;77;21223;-76
2021/03/21 00:28:20;;;;;;;21.70;13.40;;;;;;;-1.46;78.20;100737.02;1849227;75;21187;-75
2021/03/21 00:30:49;;;;;;;21.12;14.13;;;;;;;-1.46;78.13;100732.28;1818972;77;21236;-75
2021/03/21 00:33:20;;;;;;;22.48;13.80;;;;;;;-1.48;78.05;100731.63;1817857;77;21158;-76
2021/03/21 00:35:51;;;;;;;18.77;11.95;;;;;;;-1.51;77.97;100729.39;1853075;77;21035;-75
2021/03/21 00:38:34;;;;;;;20.68;12.70;;;;;;;-1.57;77.88;100727.45;1819968;77;21158;-75
2021/03/21 00:41:02;;;;;;;17.32;10.90;;;;;;;-1.63;77.84;100725.52;1845936;75;21472;-74
2021/03/21 00:43:31;;;;;;;19.27;12.00;;;;;;;-1.66;77.83;100724.87;1821040;77;21171;-75
2021/03/21 00:45:59;;;;;;;19.65;12.43;;;;;;;-1.73;77.75;100725.74;1827454;76;21186;-75
2021/03/21 00:48:32;;;;;;;19.48;12.65;;;;;;;-1.80;77.78;100721.69;1832087;76;21101;-76
2021/03/21 00:51:01;;;;;;;21.73;12.65;;;;;;;-1.87;77.79;100714.70;1829622;78;21673;-74
2021/03/21 00:53:29;;;;;;;20.23;13.43;;;;;;;-1.93;77.89;100720.93;1829788;77;21818;-75
2021/03/21 00:55:57;;;;;;;19.05;12.18;;;;;;;-1.97;77.95;100718.34;1827301;78;21183;-74
2021/03/21 00:58:25;;;;;;;20.20;12.75;;;;;;;-1.98;78.06;100717.19;1833856;76;21669;-75
2021/03/21 01:00:56;;;;;;;19.90;11.18;;;;;;;-2.03;78.15;100706.42;1829966;76;21847;-76
2021/03/21 01:03:24;;;;;;;19.55;12.07;;;;;;;-2.02;78.25;100710.67;1821203;76;21173;-73
2021/03/21 01:05:57;;;;;;;20.10;11.85;;;;;;;-2.05;78.33;100706.58;1825674;76;21178;-73
2021/03/21 01:08:36;;;;;;;17.00;10.38;;;;;;;-2.09;78.40;100711.84;1819996;76;21166;-73
2021/03/21 01:11:17;;;;;;;16.57;10.32;;;;;;;-2.12;78.54;100705.14;1823327;76;21180;-73
2021/03/21 01:13:45;;;;;;;19.12;10.78;;;;;;;-2.14;78.68;100704.98;1832374;78;21216;-73
2021/03/21 01:16:17;;;;;;;16.35;10.03;;;;;;;-2.17;78.78;100703.55;1827122;77;21213;-72
2021/03/21 01:18:45;;;;;;;17.62;11.08;;;;;;;-2.18;78.87;100701.08;1831008;78;22286;-73
2021/03/21 01:21:13;;;;;;;19.48;11.45;;;;;;;-2.19;78.96;100702.08;1823814;76;21213;-74
2021/03/21 01:23:42;;;;;;;17.85;10.60;;;;;;;-2.22;79.02;100701.91;1817935;78;21224;-73
2021/03/21 01:26:15;;;;;;;18.30;11.68;;;;;;;-2.21;79.09;100705.34;1832368;76;21155;-74
2021/03/21 01:28:57;;;;;;;20.53;11.23;;;;;;;-2.17;79.22;100710.08;1754508;79;23887;-73
2021/03/21 01:31:26;;;;;;;17.12;10.90;;;;;;;-2.21;79.25;100708.77;1730192;82;21306;-74
2021/03/21 01:33:54;;;;;;;18.05;11.45;;;;;;;-2.17;79.32;100714.01;1726818;82;21439;-75
2021/03/21 01:36:29;;;;;;;17.82;10.90;;;;;;;-2.15;79.36;100707.28;1736406;82;21184;-73
2021/03/21 01:38:59;;;;;;;19.27;12.28;;;;;;;-2.16;79.39;100706.97;1723254;82;21168;-75
2021/03/21 01:41:32;;;;;;;18.50;12.13;;;;;;;-2.17;79.44;100698.80;1723697;82;21239;-76
2021/03/21 01:44:00;;;;;;;18.57;10.88;;;;;;;-2.20;79.50;100701.27;1724308;82;21668;-77
2021/03/21 01:46:37;;;;;;;14.58;9.63;;;;;;;-2.22;79.55;100701.91;1725636;82;21389;-77
2021/03/21 01:49:16;;;;;;;15.03;9.68;;;;;;;-2.22;79.62;100699.30;1736796;82;21189;-76
2021/03/21 01:51:45;;;;;;;15.78;9.60;;;;;;;-2.24;79.64;100700.45;1726609;82;21164;-77
2021/03/21 01:54:17;;;;;;;16.00;9.85;;;;;;;-2.25;79.70;100704.05;1705541;82;21180;-76
2021/03/21 01:56:45;;;;;;;;;;;;;;;-2.24;79.76;100699.14;1738537;82;21196;-73
2021/03/21 01:59:21;;;;;;;15.32;9.73;;;;;;;-2.25;79.76;100698.33;1719176;82;22287;-72
2021/03/21 02:01:51;;;;;;;15.35;9.68;;;;;;;-2.31;79.79;100694.27;1685864;82;21219;-73
2021/03/21 02:04:20;;;;;;;19.50;10.55;;;;;;;-2.36;79.87;100703.94;1725697;82;21200;-73
2021/03/21 02:07:19;;;;;;;15.60;9.90;;;;;;;-2.39;79.93;100695.93;1723702;82;21514;-73
2021/03/21 02:10:11;;;;;;;15.75;9.83;;;;;;;-2.40;79.93;100685.65;1720513;82;21183;-74
2021/03/21 02:12:56;;;;;;;14.50;8.65;;;;;;;-2.43;79.98;100696.45;1732229;82;21514;-74
2021/03/21 02:15:35;;;;;;;15.15;9.28;;;;;;;-2.43;80.01;100702.98;1718991;82;21238;-74
2021/03/21 02:18:41;;;;;;;14.53;8.33;;;;;;;-2.46;80.01;100692.86;1725090;82;21216;-75
2021/03/21 02:21:38;;;;;;;14.30;8.73;;;;;;;-2.46;80.03;100691.55;1734410;82;21208;-75
2021/03/21 02:24:31;;;;;;;14.78;9.00;;;;;;;-2.47;80.06;100687.28;1735145;82;21185;-75
2021/03/21 02:27:27;;;;;;;13.88;8.53;;;;;;;-2.49;80.05;100682.23;1724237;82;21403;-74
2021/03/21 02:30:09;;;;;;;14.18;9.10;;;;;;;-2.50;80.07;100683.69;1702871;84;21177;-76
2021/03/21 02:32:56;;;;;;;15.48;9.40;;;;;;;-2.52;80.20;100685.68;1700500;83;21284;-75
2021/03/21 02:35:48;;;;;;;17.05;10.25;;;;;;;-2.54;80.07;100683.71;1705070;82;21086;-76
2021/03/21 02:38:30;;;;;;;17.10;10.38;;;;;;;-2.57;80.06;100680.94;1705949;83;21206;-76
2021/03/21 02:41:08;;;;;;;17.75;10.58;;;;;;;-2.60;80.05;100679.96;1706149;82;26739;-76
2021/03/21 02:43:43;;;;;;;18.40;9.30;;;;;;;-2.65;80.08;100679.17;1690851;84;21462;-75
2021/03/21 02:46:23;;;;;;;15.30;8.50;;;;;;;-2.72;79.82;100669.56;1811464;76;22738;-75
2021/03/21 02:49:11;;;;;;;18.12;10.00;;;;;;;-2.72;79.82;100669.56;1785150;79;21395;-74
2021/03/21 02:51:43;;;;;;;15.78;8.73;;;;;;;-2.74;80.12;100667.59;1783557;79;21811;-74
2021/03/21 02:54:22;;;;;;;16.50;9.60;;;;;;;-2.84;80.27;100663.36;1786814;79;21780;-74
2021/03/21 02:56:55;;;;;;;15.15;9.08;;;;;;;-2.84;80.27;100671.20;1790979;79;21040;-74
2021/03/21 02:59:27;;;;;;;14.40;8.50;;;;;;;-2.89;80.18;100662.25;1796083;79;21068;-74
2021/03/21 03:02:09;;;;;;;16.07;9.40;;;;;;;-2.92;80.38;100657.35;1790416;79;21171;-73
2021/03/21 03:05:03;;;;;;;15.45;9.38;;;;;;;-2.94;80.49;100658.00;1793179;79;21368;-74
2021/03/21 03:07:42;;;;;;;12.73;7.10;;;;;;;-2.94;80.56;100656.69;1800663;79;21619;-73
2021/03/21 03:10:18;;;;;;;15.32;8.78;;;;;;;-2.96;80.65;100662.09;1795915;79;21119;-73
2021/03/21 03:13:00;;;;;;;15.83;7.90;;;;;;;-3.00;80.74;100653.42;1795827;79;21159;-75
2021/03/21 03:15:28;;;;;;;16.00;8.33;;;;;;;-3.01;80.79;100651.31;1804783;79;21166;-74
2021/03/21 03:18:04;;;;;;;14.35;8.85;;;;;;;-3.02;80.89;100655.41;1796322;79;22459;-75
2021/03/21 03:20:50;;;;;;;12.95;8.10;;;;;;;-3.03;80.94;100651.95;1812112;79;21132;-73
2021/03/21 03:23:32;;;;;;;18.00;9.28;;;;;;;-3.02;80.98;100659.33;1800843;77;21109;-74
2021/03/21 03:26:18;;;;;;;16.55;9.33;;;;;;;-3.02;81.07;100663.25;1787789;79;21194;-75
2021/03/21 03:29:03;;;;;;;15.58;8.73;;;;;;;-3.04;81.06;100658.67;1795619;79;21143;-74
2021/03/21 03:31:39;;;;;;;13.72;8.58;;;;;;;-3.07;81.07;100654.09;1795853;79;21226;-74
2021/03/21 03:34:09;;;;;;;15.88;9.35;;;;;;;-3.10;81.11;100643.16;1799924;78;21059;-75
2021/03/21 03:36:37;;;;;;;15.50;9.00;;;;;;;-3.12;81.18;100645.95;1793100;79;21638;-75
2021/03/21 03:39:05;;;;;;;13.25;8.63;;;;;;;-3.13;81.25;100649.52;1803894;79;21199;-74
2021/03/21 03:41:45;;;;;;;14.78;9.00;;;;;;;-3.15;81.27;100642.35;1809528;79;21112;-76
2021/03/21 03:44:33;;;;;;;16.55;9.10;;;;;;;-3.19;81.43;100640.22;1799394;79;21717;-74
2021/03/21 03:47:24;;;;;;;15.72;9.08;;;;;;;-3.19;81.43;100640.22;1803790;79;21068;-75
2021/03/21 03:50:07;;;;;;;13.75;8.40;;;;;;;-3.21;81.48;100644.31;1796433;79;21230;-73
2021/03/21 03:53:01;;;;;;;14.80;8.78;;;;;;;-3.24;81.56;100639.42;1787477;79;21123;-75
2021/03/21 03:56:07;;;;;;;14.25;8.60;;;;;;;-3.25;81.68;100643.02;1799999;79;21095;-74
2021/03/21 03:58:52;;;;;;;13.28;8.70;;;;;;;-3.25;81.80;100642.20;1791696;79;21150;-74
2021/03/21 04:01:40;;;;;;;14.35;8.75;;;;;;;-3.27;81.91;100635.83;1801422;79;21200;-75
2021/03/21 04:04:34;;;;;;;15.10;8.98;;;;;;;-3.28;81.98;100639.43;1799287;79;21182;-73
2021/03/21 04:07:51;;;;;;;13.47;7.90;;;;;;;-3.23;82.28;100640.23;1823972;77;24368;-74
2021/03/21 04:10:42;;;;;;;12.45;7.67;;;;;;;-3.23;82.28;100640.23;1777039;79;21124;-74
2021/03/21 04:13:20;;;;;;;12.82;7.92;;;;;;;-3.23;82.16;100631.89;1792968;79;22103;-75
2021/03/21 04:15:51;;;;;;;12.98;7.58;;;;;;;-3.22;82.23;100632.24;1789465;79;21179;-73
2021/03/21 04:18:36;;;;;;;14.10;8.68;;;;;;;-3.21;82.30;100640.40;1791027;79;21143;-74
2021/03/21 04:21:40;;;;;;;14.05;8.90;;;;;;;-3.18;82.32;100635.34;1792377;79;21151;-74
2021/03/21 04:24:27;;;;;;;14.25;9.08;;;;;;;-3.14;82.31;100634.02;1751559;80;21231;-74
2021/03/21 04:27:13;;;;;;;12.80;7.97;;;;;;;-3.03;82.29;100636.77;1820043;77;22745;-73
2021/03/21 04:29:49;;;;;;;10.90;7.40;;;;;;;-3.05;82.27;100638.26;1804590;78;21179;-74
2021/03/21 04:32:22;;;;;;;11.35;7.33;;;;;;;-3.00;82.23;100635.95;1808909;78;21372;-74
2021/03/21 04:34:54;;;;;;;13.88;7.85;;;;;;;-2.98;82.17;100637.11;1796255;79;21194;-74
2021/03/21 04:37:22;;;;;;;13.05;8.05;;;;;;;-2.97;82.14;100633.50;1796557;79;21070;-74
2021/03/21 04:39:52;;;;;;;13.78;8.33;;;;;;;-2.91;82.11;100636.76;1802851;79;21194;-74
2021/03/21 04:42:49;;;;;;;12.28;8.03;;;;;;;-2.87;82.02;100636.24;1806048;79;21162;-74
2021/03/21 04:45:22;;;;;;;12.80;8.23;;;;;;;-2.82;81.92;100633.14;1800650;78;21743;-73
2021/03/21 04:48:05;;;;;;;14.35;8.45;;;;;;;-2.82;81.57;100617.46;1804761;79;21642;-73
2021/03/21 04:50:34;;;;;;;13.20;7.47;;;;;;;-2.82;81.57;100617.46;1803132;79;21067;-73
2021/03/21 04:53:16;;;;;;;14.10;8.43;;;;;;;-2.76;81.75;100624.64;1806400;79;21115;-73
2021/03/21 04:55:58;;;;;;;14.30;9.00;;;;;;;-2.70;81.70;100627.05;1806497;79;21367;-74
2021/03/21 04:58:37;;;;;;;11.95;7.95;;;;;;;-2.64;81.63;100624.58;1798366;79;27156;-74
2021/03/21 05:01:11;;;;;;;13.95;8.50;;;;;;;-2.58;81.50;100623.09;1799527;79;21167;-75
2021/03/21 05:03:50;;;;;;;13.65;8.55;;;;;;;-2.54;81.37;100626.99;1790256;79;21178;-74
2021/03/21 05:06:57;;;;;;;16.95;9.68;;;;;;;-2.51;81.32;100625.34;1799730;79;21214;-75
2021/03/21 05:09:42;;;;;;;16.00;9.28;;;;;;;-2.42;81.24;100629.56;1808354;78;21158;-75
2021/03/21 05:12:24;;;;;;;12.07;7.53;;;;;;;-2.32;80.59;100620.20;1788046;79;21469;-74
2021/03/21 05:15:04;;;;;;;15.63;9.08;;;;;;;-2.32;80.59;100620.20;1797442;79;21547;-73
2021/03/21 05:17:59;;;;;;;12.90;8.43;;;;;;;-2.26;80.83;100626.06;1805208;79;21140;-75
2021/03/21 05:21:10;;;;;;;13.88;7.95;;;;;;;-2.18;80.63;100631.73;1786826;79;21206;-76
2021/03/21 05:23:59;;;;;;;12.13;7.65;;;;;;;-2.11;80.28;100630.06;1723227;82;21069;-74
2021/03/21 05:26:36;;;;;;;12.30;8.05;;;;;;;-2.03;80.13;100631.84;1717172;81;21905;-75
2021/03/21 05:29:19;;;;;;;11.83;7.90;;;;;;;-1.96;79.92;100633.58;1718018;81;21179;-76
2021/03/21 05:31:47;;;;;;;12.68;8.38;;;;;;;-1.90;79.75;100625.04;1720874;82;21063;-75
2021/03/21 05:34:16;;;;;;;11.65;7.47;;;;;;;-1.77;79.66;100621.84;1719546;81;21802;-74
2021/03/21 05:37:04;;;;;;;14.10;7.92;;;;;;;-1.61;79.29;100628.77;1717804;81;21080;-75
2021/03/21 05:40:04;;;;;;;11.78;7.62;;;;;;;-1.53;78.58;100624.77;1714552;81;21383;-74
2021/03/21 05:43:05;;;;;;;12.50;8.08;;;;;;;-1.45;78.50;100619.95;1716362;82;21508;-74
2021/03/21 05:46:10;;;;;;;12.33;8.25;;;;;;;-1.37;78.29;100626.45;1711781;82;21246;-74
2021/03/21 05:49:18;;;;;;;12.07;7.67;;;;;;;-1.35;77.66;100625.78;1714641;81;21127;-73
2021/03/21 05:51:59;;;;;;;11.15;7.53;;;;;;;-1.32;77.40;100623.28;1719156;81;21138;-73
2021/03/21 05:54:55;;;;;;;11.83;7.35;;;;;;;-1.28;76.95;100620.14;1718998;81;21873;-73
2021/03/21 05:57:41;;;;;;;12.37;8.25;;;;;;;-1.25;76.71;100621.10;1718724;81;21158;-73
2021/03/21 06:00:39;;;;;;;11.50;7.95;;;;;;;-1.17;76.49;100624.63;1714158;81;21163;-74
2021/03/21 06:03:44;;;;;;;12.28;8.43;;;;;;;-1.07;76.13;100626.50;1709801;82;21071;-74
2021/03/21 06:06:47;;;;;;;12.18;8.00;;;;;;;-1.00;75.87;100624.28;1717586;82;21175;-75
2021/03/21 06:09:44;;;;;;;12.75;8.53;;;;;;;-0.91;75.59;100614.53;1719274;82;21557;-73
2021/03/21 06:12:27;;;;;;;11.57;7.33;;;;;;;-0.81;75.10;100620.33;1717609;81;21175;-74
2021/03/21 06:15:21;;;;;;;11.45;7.62;;;;;;;-0.75;74.62;100613.05;1720050;82;21729;-73
2021/03/21 06:18:18;;;;;;;12.37;7.95;;;;;;;-0.68;73.41;100616.27;1720715;81;21090;-73
2021/03/21 06:21:27;;;;;;;10.82;7.33;;;;;;;-0.63;73.45;100607.33;1716351;82;21499;-74
2021/03/21 06:24:12;;;;;;;13.48;8.33;;;;;;;-0.58;73.29;100619.42;1710459;82;21822;-74
2021/03/21 06:27:13;;;;;;;12.70;8.48;;;;;;;-0.53;72.72;100606.08;1685128;82;21186;-72
2021/03/21 06:30:00;;;;;;;11.25;7.33;;;;;;;-0.48;72.64;100605.02;1718736;81;21265;-72
2021/03/21 06:32:54;;;;;;;12.00;8.30;;;;;;;-0.40;72.21;100600.66;1683600;83;21145;-72
2021/03/21 06:36:04;;;;;;;11.48;8.35;;;;;;;-0.32;72.27;100601.38;1688033;83;21181;-71
2021/03/21 06:39:03;;;;;;;13.55;9.18;;;;;;;-0.25;72.20;100603.56;1683468;83;21215;-73
2021/03/21 06:41:54;;;;;;;16.82;9.75;;;;;;;-0.17;71.66;100593.95;1693864;83;21556;-72
2021/03/21 06:44:34;;;;;;;14.85;9.58;;;;;;;-0.11;71.57;100592.70;1692548;83;21634;-73
2021/03/21 06:47:18;;;;;;;14.90;9.50;;;;;;;-0.02;71.52;100584.22;1719442;81;21626;-73
2021/03/21 06:50:31;;;;;;;12.00;8.05;;;;;;;0.06;71.54;100574.09;1689840;83;21220;-73
2021/03/21 06:53:14;;;;;;;14.33;10.18;;;;;;;0.16;71.21;100578.53;1692072;82;21378;-72
2021/03/21 06:55:57;;;;;;;16.42;11.03;;;;;;;0.31;70.14;100570.08;1717063;82;21353;-73
2021/03/21 06:59:10;;;;;;;15.83;10.75;;;;;;;0.46;69.34;100567.36;1673404;83;21211;-73
2021/03/21 07:01:55;;;;;;;14.30;10.00;;;;;;;0.56;68.59;100554.73;1702474;81;21123;-73
2021/03/21 07:04:55;;;;;;;17.77;11.60;;;;;;;0.56;68.39;100557.83;1692151;83;21159;-74
2021/03/21 07:08:02;;;;;;;17.67;12.70;;;;;;;0.57;68.39;100554.22;1649811;85;21299;-73
2021/03/21 07:11:17;;;;;;;17.77;12.03;;;;;;;0.68;68.33;100553.69;1833978;77;22839;-73
2021/03/21 07:14:00;;;;;;;20.52;13.13;;;;;;;0.62;67.16;100555.25;1810335;77;21353;-73
2021/03/21 07:17:08;;;;;;;19.60;13.55;;;;;;;0.53;67.54;100540.66;1809987;77;21396;-73
2021/03/21 07:20:15;;;;;;;20.80;14.13;;;;;;;0.52;67.60;100539.01;1821736;78;21214;-74
2021/03/21 07:23:38;;;;;;;19.87;14.25;;;;;;;0.39;66.68;100537.59;1724910;81;21245;-73
2021/03/21 07:26:29;;;;;;;20.08;13.58;;;;;;;0.28;67.31;100540.25;1732847;81;21131;-73
2021/03/21 07:29:28;;;;;;;20.88;13.90;;;;;;;0.25;67.42;100526.69;1813889;78;21128;-74
2021/03/21 07:32:23;;;;;;;20.15;13.70;;;;;;;0.22;67.67;100526.55;1810997;77;21373;-73
2021/03/21 07:35:18;;;;;;;21.02;13.83;;;;;;;0.22;66.70;100526.05;1825378;78;21184;-72
2021/03/21 07:37:58;;;;;;;21.27;13.72;;;;;;;0.24;67.04;100516.69;1816856;78;21111;-72
2021/03/21 07:40:49;;;;;;;20.23;14.07;;;;;;;0.31;66.51;100518.86;1827947;78;21157;-73
2021/03/21 07:43:50;;;;;;;21.02;14.15;;;;;;;0.36;66.40;100513.02;1823608;78;21581;-72
2021/03/21 07:46:38;;;;;;;22.07;14.00;;;;;;;0.38;65.44;100502.63;1826774;76;21385;-72
2021/03/21 07:49:32;;;;;;;24.02;14.40;;;;;;;0.40;65.64;100500.64;1818865;78;22585;-74
2021/03/21 07:52:15;;;;;;;22.37;14.55;;;;;;;0.40;65.90;100497.20;1821262;77;21206;-73
2021/03/21 07:55:16;;;;;;;19.75;13.62;;;;;;;0.48;65.77;100494.41;1822998;76;21638;-73
2021/03/21 07:58:22;;;;;;;19.02;13.25;;;;;;;0.57;64.79;100484.06;1732152;78;21311;-74
2021/03/21 08:00:50;;;;;;;21.12;13.93;;;;;;;0.67;63.49;100481.91;1815309;77;21440;-72
2021/03/21 08:03:26;;;;;;;19.85;13.05;;;;;;;0.76;62.48;100456.75;1812964;77;21127;-72
2021/03/21 08:05:56;;;;;;;17.07;11.20;;;;;;;0.81;62.16;100463.56;1846700;77;21469;-72
2021/03/21 08:08:27;;;;;;;17.42;11.85;;;;;;;0.89;60.82;100453.70;1814084;77;21215;-72
2021/03/21 08:11:00;;;;;;;17.45;12.13;;;;;;;0.99;60.58;100449.88;1820176;78;21278;-72
2021/03/21 08:13:43;;;;;;;20.68;13.53;;;;;;;1.14;60.10;100447.92;1818437;78;21435;-72
2021/03/21 08:16:17;;;;;;;19.37;12.98;;;;;;;1.22;59.57;100441.66;1799382;78;21153;-72
2021/03/21 08:18:47;;;;;;;17.62;12.45;;;;;;;1.25;59.50;100430.27;1844178;77;21152;-72
2021/03/21 08:21:28;;;;;;;21.37;13.80;;;;;;;1.32;59.60;100429.77;1839127;77;21151;-72
2021/03/21 08:24:02;;;;;;;21.00;14.30;;;;;;;1.34;59.61;100417.20;1821096;77;21219;-73
2021/03/21 08:26:31;;;;;;;20.82;14.20;;;;;;;1.42;59.74;100418.05;1845046;77;21699;-73
2021/03/21 08:29:04;;;;;;;18.42;13.65;;;;;;;1.45;58.90;100411.88;1816911;77;21168;-71
2021/03/21 08:31:40;;;;;;;18.23;13.45;;;;;;;1.52;59.32;100413.20;1806041;78;21173;-73
2021/03/21 08:34:33;;;;;;;18.73;12.60;;;;;;;1.60;59.12;100405.90;1794561;78;22273;-72
2021/03/21 08:37:28;;;;;;;17.60;12.53;;;;;;;1.58;57.81;100415.84;1814174;78;21215;-73
2021/03/21 08:40:19;;;;;;;17.65;11.70;;;;;;;1.44;56.69;100416.02;1804780;78;22276;-73
2021/03/21 08:42:50;;;;;;;18.40;13.00;;;;;;;1.34;57.20;100403.23;1814566;77;21648;-73
2021/03/21 08:45:31;;;;;;;19.25;12.55;;;;;;;1.24;57.00;100412.83;1805601;77;21625;-74
2021/03/21 08:48:24;;;;;;;17.32;11.55;;;;;;;1.15;56.64;100394.29;1850123;77;21623;-73
2021/03/21 08:50:55;;;;;;;16.77;11.95;;;;;;;1.13;57.26;100385.30;1816786;77;21191;-73
2021/03/21 08:53:37;;;;;;;16.42;11.35;;;;;;;1.17;58.02;100392.28;1791019;79;21197;-73
2021/03/21 08:56:17;;;;;;;18.35;12.58;;;;;;;1.12;56.61;100379.73;1794428;77;26839;-73
2021/03/21 08:59:01;;;;;;;19.55;13.20;;;;;;;1.06;57.12;100367.38;1819356;78;21171;-72
2021/03/21 09:01:30;;;;;;;17.20;11.95;;;;;;;1.14;57.62;100357.16;1813464;77;21264;-71
2021/03/21 09:04:17;;;;;;;19.37;13.20;;;;;;;1.37;57.90;100352.84;1798146;79;21592;-72
2021/03/21 09:06:47;;;;;;;18.77;11.88;;;;;;;1.59;57.59;100345.06;1808281;78;21370;-70
2021/03/21 09:09:25;;;;;;;18.00;12.63;;;;;;;1.80;56.31;100334.00;1820758;77;21199;-73
2021/03/21 09:11:56;;;;;;;15.80;11.55;;;;;;;1.94;55.24;100329.52;1819957;77;21171;-72
2021/03/21 09:14:31;;;;;;;17.42;12.05;;;;;;;1.99;53.95;100336.31;1823669;78;21175;-73
2021/03/21 09:17:04;;;;;;;15.90;11.22;;;;;;;1.99;54.22;100331.84;1829336;78;21179;-72
2021/03/21 09:19:36;;;;;;;15.00;10.55;;;;;;;2.02;53.07;100322.73;1814661;78;21426;-73
2021/03/21 09:22:30;;;;;;;17.42;11.48;;;;;;;2.07;53.12;100324.22;1798092;77;21188;-72
2021/03/21 09:25:26;;;;;;;16.47;11.60;;;;;;;2.18;53.36;100319.64;1756744;79;22779;-72
2021/03/21 09:27:56;;;;;;;18.77;12.75;;;;;;;2.17;52.95;100319.83;1752668;80;21717;-74
2021/03/21 09:30:43;;;;;;;18.45;11.80;;;;;;;2.24;52.47;100323.28;1768263;80;21501;-72
2021/03/21 09:33:17;;;;;;;16.77;11.90;;;;;;;2.28;52.17;100317.89;1763501;81;21215;-73
2021/03/21 09:35:58;;;;;;;16.10;10.55;;;;;;;2.32;51.97;100317.77;1793819;79;21198;-74
2021/03/21 09:38:29;;;;;;;16.93;11.68;;;;;;;2.28;51.19;100306.03;1807675;79;21175;-70
2021/03/21 09:41:02;;;;;;;16.02;11.08;;;;;;;2.25;51.53;100305.94;1796298;79;21192;-72
2021/03/21 09:43:35;;;;;;;13.80;10.08;;;;;;;2.25;51.26;100304.61;1797682;77;21358;-72
2021/03/21 09:46:18;;;;;;;16.05;10.30;;;;;;;2.28;50.67;100288.91;1794016;79;25770;-72
2021/03/21 09:49:12;;;;;;;19.07;12.28;;;;;;;2.44;51.44;100287.11;1794710;79;21186;-72
2021/03/21 09:51:55;;;;;;;15.53;10.82;;;;;;;2.67;50.72;100274.73;1792886;79;21164;-73
2021/03/21 09:54:37;;;;;;;16.77;10.82;;;;;;;2.85;50.83;100284.55;1800492;79;21152;-73
2021/03/21 09:57:40;;;;;;;17.43;11.50;;;;;;;3.13;50.11;100268.33;1840035;77;22779;-72
2021/03/21 10:00:16;;;;;;;17.98;11.50;;;;;;;3.21;49.82;100274.65;1817132;78;21207;-73
2021/03/21 10:02:50;;;;;;;15.03;10.60;;;;;;;3.20;48.86;100264.32;1815876;77;22345;-73
2021/03/21 10:06:00;;;;;;;15.08;10.40;;;;;;;3.20;48.76;100270.92;1839671;76;21215;-72
2021/03/21 10:09:02;;;;;;;15.78;10.43;;;;;;;3.24;48.86;100266.81;1830422;76;21650;-74
2021/03/21 10:11:34;;;;;;;14.38;11.05;;;;;;;3.35;47.61;100270.58;1825300;78;21168;-73
2021/03/21 10:14:30;;;;;;;17.00;11.93;;;;;;;3.18;48.71;100255.28;1822050;77;21391;-73
2021/03/21 10:17:23;;;;;;;15.53;10.70;;;;;;;3.19;49.87;100257.41;1823691;78;21552;-71
2021/03/21 10:19:55;;;;;;;15.63;11.57;;;;;;;3.37;49.28;100236.34;1825419;78;21168;-72
2021/03/21 10:22:34;;;;;;;16.45;12.07;;;;;;;3.41;48.69;100233.56;1824913;78;21163;-72
2021/03/21 10:25:13;;;;;;;15.90;11.50;;;;;;;3.39;48.79;100239.59;1821820;78;21176;-72
2021/03/21 10:27:49;;;;;;;16.30;11.80;;;;;;;3.47;49.25;100237.17;1801094;78;21196;-71
2021/03/21 10:30:23;;;;;;;14.58;9.65;;;;;;;3.52;48.45;100232.86;1818470;78;21368;-71
2021/03/21 10:33:06;;;;;;;16.55;11.28;;;;;;;3.60;47.83;100240.20;1818236;78;21184;-72
2021/03/21 10:35:43;;;;;;;14.83;10.48;;;;;;;3.61;48.30;100218.03;1816258;78;21901;-71
2021/03/21 10:38:14;;;;;;;15.35;10.08;;;;;;;3.65;48.33;100209.47;1822343;77;21160;-75
2021/03/21 10:40:45;;;;;;;12.30;9.45;;;;;;;3.79;47.52;100223.34;1819448;78;21188;-70
2021/03/21 10:43:22;;;;;;;13.25;9.60;;;;;;;3.89;46.12;100211.73;1815778;78;21226;-73
2021/03/21 10:45:54;;;;;;;14.07;9.55;;;;;;;3.90;45.48;100210.70;1815735;78;21486;-73
2021/03/21 10:48:31;;;;;;;12.30;9.53;;;;;;;3.83;45.32;100211.30;1816546;77;21168;-71
2021/03/21 10:51:06;;;;;;;13.00;9.28;;;;;;;3.82;46.17;100196.48;1854604;76;21108;-72
2021/03/21 10:53:52;;;;;;;12.80;8.98;;;;;;;3.89;45.93;100179.23;1816309;77;21168;-70
2021/03/21 10:56:26;;;;;;;13.68;8.80;;;;;;;3.99;45.77;100190.88;1791838;77;21206;-72
2021/03/21 10:59:27;;;;;;;11.70;8.43;;;;;;;4.07;43.86;100195.56;1835198;77;21175;-77
2021/03/21 11:02:22;;;;;;;12.55;8.95;;;;;;;3.95;42.71;100213.50;1845800;76;21219;-77
2021/03/21 11:05:10;;;;;;;12.90;9.20;;;;;;;3.84;43.90;100195.73;1804293;78;22727;-75
2021/03/21 11:07:39;;;;;;;12.82;9.25;;;;;;;3.84;44.39;100169.31;1776596;80;21120;-73
2021/03/21 11:10:08;;;;;;;13.20;8.53;;;;;;;3.91;43.99;100172.67;1788100;78;21357;-73
2021/03/21 11:12:41;;;;;;;10.93;8.00;;;;;;;3.99;45.18;100164.97;1784996;78;21707;-75
2021/03/21 11:15:21;;;;;;;12.45;8.80;;;;;;;4.22;45.33;100170.88;1793828;78;21584;-75
2021/03/21 11:17:50;;;;;;;11.85;8.25;;;;;;;4.38;43.08;100146.44;1759501;80;21136;-76
2021/03/21 11:20:29;;;;;;;11.65;8.35;;;;;;;4.43;44.56;100155.00;1718932;80;21247;-77
2021/03/21 11:22:58;;;;;;;10.45;8.03;;;;;;;4.54;43.49;100141.52;1779805;80;22144;-74
2021/03/21 11:25:33;;;;;;;13.43;9.30;;;;;;;4.60;43.76;100130.83;1780658;80;21195;-75
2021/03/21 11:28:01;;;;;;;11.53;7.95;;;;;;;4.69;43.13;100135.28;1795006;78;21197;-76
2021/03/21 11:30:30;;;;;;;11.30;7.62;;;;;;;4.64;41.51;100149.20;1795775;78;21568;-74
2021/03/21 11:33:19;;;;;;;14.15;8.25;;;;;;;4.46;40.72;100124.95;1798006;78;21613;-76
2021/03/21 11:35:49;;;;;;;11.05;8.45;;;;;;;4.26;41.32;100137.66;1797762;79;21389;-74
2021/03/21 11:38:30;;;;;;;10.30;7.53;;;;;;;4.18;42.46;100118.17;1797469;79;21137;-75
2021/03/21 11:41:01;;;;;;;11.90;8.15;;;;;;;4.30;42.81;100118.19;1802601;79;21100;-75
2021/03/21 11:43:31;;;;;;;13.48;8.63;;;;;;;4.43;42.75;100117.46;1802847;78;21141;-74
2021/03/21 11:46:15;;;;;;;13.15;8.98;;;;;;;4.48;42.92;100103.58;1777817;78;21124;-74
2021/03/21 11:48:44;;;;;;;11.68;8.95;;;;;;;4.51;43.11;100112.88;1813063;78;22346;-74
2021/03/21 11:51:12;;;;;;;11.43;8.75;;;;;;;4.61;42.98;100088.81;1777640;80;21089;-74
2021/03/21 11:53:40;;;;;;;11.75;8.63;;;;;;;4.67;42.97;100092.36;1726538;80;21077;-74
2021/03/21 11:56:28;;;;;;;12.60;8.40;;;;;;;4.67;41.95;100080.46;1776522;80;21207;-76
2021/03/21 11:59:16;;;;;;;11.35;8.88;;;;;;;4.60;41.61;100086.38;1779304;80;21137;-75
2021/03/21 12:01:49;;;;;;;12.28;9.53;;;;;;;4.59;42.80;100094.04;1781900;80;21427;-75
2021/03/21 12:04:29;;;;;;;12.70;9.43;;;;;;;4.66;43.60;100075.69;1757839;80;21185;-75
2021/03/21 12:06:59;;;;;;;12.75;8.53;;;;;;;4.77;43.09;100052.94;1782859;80;21204;-75
2021/03/21 12:09:37;;;;;;;13.05;9.33;;;;;;;4.83;43.58;100059.92;1787846;80;21227;-73
2021/03/21 12:12:31;;;;;;;13.03;8.90;;;;;;;4.94;42.85;100053.84;1777455;80;21207;-74
2021/03/21 12:15:00;;;;;;;11.63;8.63;;;;;;;4.93;42.09;100060.67;1774549;79;21176;-74
2021/03/21 12:17:32;;;;;;;12.98;9.23;;;;;;;4.84;42.77;100056.79;1784482;80;21176;-75
2021/03/21 12:20:42;;;;;;;13.72;9.28;;;;;;;4.75;42.34;100051.03;1779924;80;21113;-75
2021/03/21 12:23:32;;;;;;;12.98;8.65;;;;;;;4.63;42.84;100039.64;1780151;80;21196;-75